createdAt,value
2018-12-26T00:01:43.672Z,5.54
2018-12-26T00:07:38.544Z,6.22
2018-12-26T00:13:33.548Z,4.89
2018-12-26T00:19:28.550Z,5.35
2018-12-26T00:25:23.580Z,5.14
2018-12-26T00:31:18.544Z,4.81
2018-12-26T00:37:13.535Z,4.62
2018-12-26T00:43:08.546Z,5.3
2018-12-26T00:49:03.565Z,6.01
2018-12-26T00:54:58.561Z,7.11
2018-12-26T01:00:53.563Z,5.76
2018-12-26T01:06:48.559Z,5.53
2018-12-26T01:12:43.558Z,4.66
2018-12-26T01:18:38.556Z,4
2018-12-26T01:24:33.603Z,4.7
2018-12-26T01:30:28.574Z,4.93
2018-12-26T01:36:23.565Z,5.01
2018-12-26T01:42:18.611Z,4.96
2018-12-26T01:48:13.603Z,5.67
2018-12-26T01:54:08.576Z,5.62
2018-12-26T02:00:03.580Z,5.61
2018-12-26T02:05:58.594Z,4.3
2018-12-26T02:11:53.573Z,5.73
2018-12-26T02:17:48.584Z,6.14
2018-12-26T02:23:43.595Z,6.44
2018-12-26T02:29:38.602Z,5.61
2018-12-26T02:35:33.609Z,6.27
2018-12-26T02:41:28.607Z,5.17
2018-12-26T02:47:23.578Z,7
2018-12-26T02:53:18.605Z,7.1
2018-12-26T02:59:13.758Z,6.71
2018-12-26T03:05:08.626Z,7.12
2018-12-26T03:11:03.646Z,6.6
2018-12-26T03:16:58.661Z,6.7
2018-12-26T03:22:53.636Z,7.1
2018-12-26T03:28:48.682Z,7.08
2018-12-26T03:34:43.654Z,7.69
2018-12-26T03:40:38.608Z,7.77
2018-12-26T03:46:33.626Z,7.63
2018-12-26T03:52:28.711Z,6.67
2018-12-26T03:58:23.627Z,7.87
2018-12-26T04:04:18.627Z,7.92
2018-12-26T04:10:13.665Z,7.33
2018-12-26T04:16:08.640Z,7.23
2018-12-26T04:22:03.652Z,8.02
2018-12-26T04:27:58.673Z,7.91
2018-12-26T04:33:53.704Z,7.28
2018-12-26T04:39:48.639Z,7.56
2018-12-26T04:45:43.688Z,8.43
2018-12-26T04:51:38.639Z,8.82
2018-12-26T04:57:33.646Z,8.49
2018-12-26T05:03:28.650Z,7.6
2018-12-26T05:09:23.790Z,8.43
2018-12-26T05:15:18.659Z,7.33
2018-12-26T05:21:13.668Z,7.23
2018-12-26T05:27:08.698Z,8.61
2018-12-26T05:33:03.683Z,8.26
2018-12-26T05:38:58.671Z,8.84
2018-12-26T05:44:53.682Z,8.22
2018-12-26T05:50:48.709Z,8.43
2018-12-26T05:56:43.674Z,8.94
2018-12-26T06:02:38.692Z,9.22
2018-12-26T06:08:33.687Z,8.57
2018-12-26T06:14:28.700Z,7.31
2018-12-26T06:20:23.699Z,8
2018-12-26T06:26:18.679Z,9.19
2018-12-26T06:32:13.698Z,7.29
2018-12-26T06:38:08.711Z,8.33
2018-12-26T06:44:03.722Z,7.34
2018-12-26T06:49:58.721Z,6.5
2018-12-26T06:55:53.724Z,5.87
2018-12-26T07:01:48.682Z,5.39
2018-12-26T07:07:43.693Z,6.17
2018-12-26T07:13:38.710Z,5.09
2018-12-26T07:19:33.724Z,4.67
2018-12-26T07:25:28.698Z,5.16
2018-12-26T07:31:23.736Z,5.38
2018-12-26T07:37:18.734Z,5.68
2018-12-26T07:43:13.716Z,5.57
2018-12-26T07:49:08.718Z,5.75
2018-12-26T07:55:03.744Z,6.65
2018-12-26T08:00:58.726Z,6.06
2018-12-26T08:06:53.785Z,9.74
2018-12-26T08:12:48.747Z,12.48
2018-12-26T08:18:43.730Z,12.64
2018-12-26T08:24:38.755Z,15.6
2018-12-26T08:30:33.764Z,12.14
2018-12-26T08:36:28.730Z,13.22
2018-12-26T08:42:23.762Z,12.97
2018-12-26T08:48:18.755Z,12.03
2018-12-26T08:54:13.757Z,13.4
2018-12-26T09:00:08.738Z,12.12
2018-12-26T09:06:03.760Z,11.22
2018-12-26T09:11:58.761Z,14.16
2018-12-26T09:17:53.770Z,13.94
2018-12-26T09:23:48.837Z,14.08
2018-12-26T09:29:43.756Z,14.76
2018-12-26T09:35:38.758Z,17.69
2018-12-26T09:41:33.769Z,18.54
2018-12-26T09:47:28.805Z,18.93
2018-12-26T09:53:23.797Z,17.18
2018-12-26T09:59:18.780Z,20.7
2018-12-26T10:05:13.823Z,28.16
2018-12-26T10:11:08.781Z,18.01
2018-12-26T10:17:03.802Z,18.29
2018-12-26T10:22:58.851Z,18.14
2018-12-26T10:29:00.863Z,19.29
2018-12-26T10:34:48.814Z,22.97
2018-12-26T10:40:43.833Z,20.99
2018-12-26T10:46:38.784Z,17.25
2018-12-26T10:52:33.840Z,15.78
2018-12-26T10:58:28.861Z,17.22
2018-12-26T11:04:23.808Z,16.46
2018-12-26T11:10:18.815Z,15.13
2018-12-26T11:16:13.807Z,15.99
2018-12-26T11:22:08.829Z,14.39
2018-12-26T11:28:03.850Z,14.53
2018-12-26T11:33:58.822Z,12.53
2018-12-26T11:39:53.832Z,12.57
2018-12-26T11:45:48.853Z,12
2018-12-26T11:51:43.883Z,11.81
2018-12-26T11:57:38.876Z,11.53
2018-12-26T12:03:33.843Z,12.19
2018-12-26T12:09:28.849Z,12.12
2018-12-26T12:15:23.847Z,12.87
2018-12-26T12:21:18.835Z,12.38
2018-12-26T12:27:13.880Z,12.6
2018-12-26T12:33:08.915Z,11.17
2018-12-26T12:39:03.890Z,13.34
2018-12-26T12:44:58.866Z,10.59
2018-12-26T12:50:53.892Z,9.3
2018-12-26T12:56:48.892Z,10.49
2018-12-26T13:02:43.907Z,8.03
2018-12-26T13:08:38.876Z,7
2018-12-26T13:14:33.916Z,8.19
2018-12-26T13:20:28.897Z,7.37
2018-12-26T13:26:23.887Z,7.03
2018-12-26T13:32:18.917Z,8.1
2018-12-26T13:38:13.898Z,8.38
2018-12-26T13:44:08.903Z,7.36
2018-12-26T13:50:03.891Z,8.81
2018-12-26T13:55:58.901Z,7.33
2018-12-26T14:01:53.887Z,6.21
2018-12-26T14:07:48.929Z,5.72
2018-12-26T14:13:43.932Z,5.61
2018-12-26T14:19:38.941Z,4.96
2018-12-26T14:25:33.926Z,4.77
2018-12-26T14:31:28.960Z,5.1
2018-12-26T14:37:23.950Z,11.16
2018-12-26T14:43:18.934Z,8.36
2018-12-26T14:49:13.969Z,6.81
2018-12-26T14:55:08.980Z,7.62
2018-12-26T15:01:04.044Z,9.59
2018-12-26T15:06:58.968Z,12.53
2018-12-26T15:12:54.031Z,9.18
2018-12-26T15:18:49.012Z,22.8
2018-12-26T15:24:43.989Z,15.47
2018-12-26T15:30:38.982Z,13.5
2018-12-26T15:36:34.019Z,11.57
2018-12-26T15:42:28.999Z,13.36
2018-12-26T15:48:24.019Z,11.39
2018-12-26T15:54:18.995Z,10.07
2018-12-26T16:00:14.001Z,12.34
2018-12-26T16:06:09.115Z,11.05
2018-12-26T16:12:03.985Z,9.33
2018-12-26T16:17:58.998Z,10.84
2018-12-26T16:23:54.003Z,11.42
2018-12-26T16:29:48.989Z,9.36
2018-12-26T16:35:44.002Z,8.53
2018-12-26T16:41:39.085Z,15.57
2018-12-26T16:47:33.999Z,27.2
2018-12-26T16:53:29.008Z,13.63
2018-12-26T16:59:24.004Z,8.54
2018-12-26T17:05:19.024Z,6.44
2018-12-26T17:11:14.040Z,7.33
2018-12-26T17:17:09.070Z,7.64
2018-12-26T17:23:04.113Z,7.96
2018-12-26T17:28:59.028Z,8.78
2018-12-26T17:34:54.033Z,16.19
2018-12-26T17:40:49.053Z,12.55
2018-12-26T17:46:44.085Z,6.41
2018-12-26T17:52:39.040Z,4.8
2018-12-26T17:58:34.080Z,5.16
2018-12-26T18:04:29.324Z,8.12
2018-12-26T18:10:24.050Z,9.95
2018-12-26T18:16:19.112Z,8.5
2018-12-26T18:22:14.079Z,10.12
2018-12-26T18:28:09.105Z,7.53
2018-12-26T18:34:04.113Z,6.21
2018-12-26T18:39:59.072Z,7.72
2018-12-26T18:45:54.095Z,13.87
2018-12-26T18:51:49.067Z,12.68
2018-12-26T18:57:44.113Z,18.77
2018-12-26T19:03:39.084Z,12.23
2018-12-26T19:09:34.111Z,7.85
2018-12-26T19:15:29.090Z,12.63
2018-12-26T19:21:24.077Z,12.62
2018-12-26T19:27:19.074Z,10.18
2018-12-26T19:33:14.112Z,9.57
2018-12-26T19:39:09.107Z,11.8
2018-12-26T19:45:04.124Z,11.68
2018-12-26T19:50:59.118Z,12.26
2018-12-26T19:56:54.115Z,8.67
2018-12-26T20:02:49.121Z,9
2018-12-26T20:08:44.115Z,9.31
2018-12-26T20:14:39.197Z,17.36
2018-12-26T20:20:34.112Z,14.82
2018-12-26T20:26:29.204Z,11.1
2018-12-26T20:32:27.828Z,14.66
2018-12-26T20:38:19.126Z,13.37
2018-12-26T20:44:14.127Z,13.43
2018-12-26T20:50:09.166Z,15.71
2018-12-26T20:56:04.139Z,13.5
2018-12-26T21:02:05.553Z,10.98
2018-12-26T21:07:54.130Z,9.72
2018-12-26T21:13:49.121Z,9.8
2018-12-26T21:19:44.153Z,9.76
2018-12-26T21:25:39.143Z,8.51
2018-12-26T21:31:34.277Z,10.3
2018-12-26T21:37:29.202Z,10.73
2018-12-26T21:43:24.155Z,8.86
2018-12-26T21:49:19.166Z,8.72
2018-12-26T21:55:14.175Z,8.74
2018-12-26T22:01:10.642Z,13.78
2018-12-26T22:07:04.194Z,9.13
2018-12-26T22:12:59.159Z,9.43
2018-12-26T22:18:54.191Z,8.02
2018-12-26T22:24:49.178Z,10.09
2018-12-26T22:30:44.171Z,11.79
2018-12-26T22:36:39.166Z,9.7
2018-12-26T22:42:34.194Z,10.84
2018-12-26T22:48:29.174Z,9.4
2018-12-26T22:54:24.239Z,10.92
2018-12-26T23:00:19.163Z,11.79
2018-12-26T23:06:14.215Z,13.36
2018-12-26T23:12:09.198Z,13.62
2018-12-26T23:18:04.204Z,12.68
2018-12-26T23:23:59.217Z,14.35
2018-12-26T23:29:54.213Z,14
2018-12-26T23:35:49.203Z,12.97
2018-12-26T23:41:44.217Z,11.71
2018-12-26T23:47:39.219Z,13.54
2018-12-26T23:53:34.211Z,16.4
2018-12-26T23:59:29.217Z,12.51
